sensor_id;sensor_type;location;lat;lon;timestamp;temperature;humidity
8780;DHT22;62328;51.19929245;4.42130175;2023-07-13T00:01:54;17.90;99.90
8780;DHT22;62328;51.19929245;4.42130175;2023-07-13T00:04:23;17.90;99.90
8780;DHT22;62328;51.19929245;4.42130175;2023-07-13T00:06:52;17.90;99.90
8780;DHT22;62328;51.19929245;4.42130175;2023-07-13T00:09:20;17.90;99.90
8780;DHT22;62328;51.19929245;4.42130175;2023-07-13T00:11:53;17.90;99.90
8780;DHT22;62328;51.19929245;4.42130175;2023-07-13T00:14:21;18.00;99.90
8780;DHT22;62328;51.19929245;4.42130175;2023-07-13T00:16:48;17.90;99.90
8780;DHT22;62328;51.19929245;4.42130175;2023-07-13T00:19:15;17.90;99.90
8780;DHT22;62328;51.19929245;4.42130175;2023-07-13T00:21:43;17.80;99.90
8780;DHT22;62328;51.19929245;4.42130175;2023-07-13T00:24:12;17.80;99.90
8780;DHT22;62328;51.19929245;4.42130175;2023-07-13T00:26:41;17.90;99.90
8780;DHT22;62328;51.19929245;4.42130175;2023-07-13T00:29:11;17.80;99.90
8780;DHT22;62328;51.19929245;4.42130175;2023-07-13T00:31:39;17.70;99.90
8780;DHT22;62328;51.19929245;4.42130175;2023-07-13T00:34:06;17.80;99.90
8780;DHT22;62328;51.19929245;4.42130175;2023-07-13T00:36:33;17.70;99.90
8780;DHT22;62328;51.19929245;4.42130175;2023-07-13T00:39:01;17.70;99.90
8780;DHT22;62328;51.19929245;4.42130175;2023-07-13T00:41:29;17.70;99.90
8780;DHT22;62328;51.19929245;4.42130175;2023-07-13T00:43:56;17.70;99.90
8780;DHT22;62328;51.19929245;4.42130175;2023-07-13T00:46:27;17.70;99.90
8780;DHT22;62328;51.19929245;4.42130175;2023-07-13T00:48:59;17.70;99.90
8780;DHT22;62328;51.19929245;4.42130175;2023-07-13T00:51:31;17.70;99.90
8780;DHT22;62328;51.19929245;4.42130175;2023-07-13T00:54:04;17.80;99.90
8780;DHT22;62328;51.19929245;4.42130175;2023-07-13T00:56:32;17.70;99.90
8780;DHT22;62328;51.19929245;4.42130175;2023-07-13T00:59:00;17.60;99.90
8780;DHT22;62328;51.19929245;4.42130175;2023-07-13T01:01:30;17.50;99.90
8780;DHT22;62328;51.19929245;4.42130175;2023-07-13T01:03:57;17.40;99.90
8780;DHT22;62328;51.19929245;4.42130175;2023-07-13T01:06:24;17.50;99.90
8780;DHT22;62328;51.19929245;4.42130175;2023-07-13T01:08:52;17.50;99.90
8780;DHT22;62328;51.19929245;4.42130175;2023-07-13T01:11:21;17.40;99.90
8780;DHT22;62328;51.19929245;4.42130175;2023-07-13T01:13:49;17.40;99.90
8780;DHT22;62328;51.19929245;4.42130175;2023-07-13T01:16:24;17.50;99.90
8780;DHT22;62328;51.19929245;4.42130175;2023-07-13T01:18:53;17.40;99.90
8780;DHT22;62328;51.19929245;4.42130175;2023-07-13T01:21:25;17.40;99.90
8780;DHT22;62328;51.19929245;4.42130175;2023-07-13T01:23:53;17.40;99.90
8780;DHT22;62328;51.19929245;4.42130175;2023-07-13T01:26:20;17.40;99.90
8780;DHT22;62328;51.19929245;4.42130175;2023-07-13T01:28:47;17.30;99.90
8780;DHT22;62328;51.19929245;4.42130175;2023-07-13T01:31:15;17.30;99.90
8780;DHT22;62328;51.19929245;4.42130175;2023-07-13T01:33:42;17.40;99.90
8780;DHT22;62328;51.19929245;4.42130175;2023-07-13T01:36:11;17.30;99.90
8780;DHT22;62328;51.19929245;4.42130175;2023-07-13T01:38:40;17.30;99.90
8780;DHT22;62328;51.19929245;4.42130175;2023-07-13T01:41:08;17.20;99.90
8780;DHT22;62328;51.19929245;4.42130175;2023-07-13T01:43:35;17.30;99.90
8780;DHT22;62328;51.19929245;4.42130175;2023-07-13T01:46:02;17.30;99.90
8780;DHT22;62328;51.19929245;4.42130175;2023-07-13T01:48:29;17.30;99.90
8780;DHT22;62328;51.19929245;4.42130175;2023-07-13T01:50:57;17.30;99.90
8780;DHT22;62328;51.19929245;4.42130175;2023-07-13T01:53:24;17.20;99.90
8780;DHT22;62328;51.19929245;4.42130175;2023-07-13T01:55:53;17.20;99.90
8780;DHT22;62328;51.19929245;4.42130175;2023-07-13T01:58:20;17.20;99.90
8780;DHT22;62328;51.19929245;4.42130175;2023-07-13T02:00:48;17.20;99.90
8780;DHT22;62328;51.19929245;4.42130175;2023-07-13T02:03:15;17.20;99.90
8780;DHT22;62328;51.19929245;4.42130175;2023-07-13T02:05:43;17.20;99.90
8780;DHT22;62328;51.19929245;4.42130175;2023-07-13T02:08:11;17.20;99.90
8780;DHT22;62328;51.19929245;4.42130175;2023-07-13T02:10:38;17.10;99.90
8780;DHT22;62328;51.19929245;4.42130175;2023-07-13T02:13:07;17.10;99.90
8780;DHT22;62328;51.19929245;4.42130175;2023-07-13T02:15:37;17.10;99.90
8780;DHT22;62328;51.19929245;4.42130175;2023-07-13T02:18:04;17.10;99.90
8780;DHT22;62328;51.19929245;4.42130175;2023-07-13T02:20:31;17.10;99.90
8780;DHT22;62328;51.19929245;4.42130175;2023-07-13T02:22:59;17.10;99.90
8780;DHT22;62328;51.19929245;4.42130175;2023-07-13T02:25:26;17.00;99.90
8780;DHT22;62328;51.19929245;4.42130175;2023-07-13T02:27:53;17.10;99.90
8780;DHT22;62328;51.19929245;4.42130175;2023-07-13T02:30:21;17.10;99.90
8780;DHT22;62328;51.19929245;4.42130175;2023-07-13T02:32:50;17.00;99.90
8780;DHT22;62328;51.19929245;4.42130175;2023-07-13T02:35:17;17.00;99.90
8780;DHT22;62328;51.19929245;4.42130175;2023-07-13T02:37:44;17.00;99.90
8780;DHT22;62328;51.19929245;4.42130175;2023-07-13T02:40:11;17.00;99.90
8780;DHT22;62328;51.19929245;4.42130175;2023-07-13T02:42:38;17.00;99.90
8780;DHT22;62328;51.19929245;4.42130175;2023-07-13T02:45:07;17.00;99.90
8780;DHT22;62328;51.19929245;4.42130175;2023-07-13T02:47:36;17.00;99.90
8780;DHT22;62328;51.19929245;4.42130175;2023-07-13T02:50:04;17.00;99.90
8780;DHT22;62328;51.19929245;4.42130175;2023-07-13T02:52:32;17.00;99.90
8780;DHT22;62328;51.19929245;4.42130175;2023-07-13T02:54:59;17.00;99.90
8780;DHT22;62328;51.19929245;4.42130175;2023-07-13T02:57:26;17.00;99.90
8780;DHT22;62328;51.19929245;4.42130175;2023-07-13T02:59:53;17.00;99.90
8780;DHT22;62328;51.19929245;4.42130175;2023-07-13T03:02:21;17.00;99.90
8780;DHT22;62328;51.19929245;4.42130175;2023-07-13T03:04:49;17.10;99.90
8780;DHT22;62328;51.19929245;4.42130175;2023-07-13T03:07:16;17.10;99.90
8780;DHT22;62328;51.19929245;4.42130175;2023-07-13T03:09:43;17.10;99.90
8780;DHT22;62328;51.19929245;4.42130175;2023-07-13T03:12:10;17.10;99.90
8780;DHT22;62328;51.19929245;4.42130175;2023-07-13T03:14:38;17.10;99.90
8780;DHT22;62328;51.19929245;4.42130175;2023-07-13T03:17:05;17.10;99.90
8780;DHT22;62328;51.19929245;4.42130175;2023-07-13T03:19:34;17.10;99.90
8780;DHT22;62328;51.19929245;4.42130175;2023-07-13T03:22:02;17.00;99.90
8780;DHT22;62328;51.19929245;4.42130175;2023-07-13T03:24:29;17.00;99.90
8780;DHT22;62328;51.19929245;4.42130175;2023-07-13T03:26:56;17.00;99.90
8780;DHT22;62328;51.19929245;4.42130175;2023-07-13T03:29:24;17.00;99.90
8780;DHT22;62328;51.19929245;4.42130175;2023-07-13T03:31:51;17.00;99.90
8780;DHT22;62328;51.19929245;4.42130175;2023-07-13T03:34:18;17.00;99.90
8780;DHT22;62328;51.19929245;4.42130175;2023-07-13T03:36:45;17.00;99.90
8780;DHT22;62328;51.19929245;4.42130175;2023-07-13T03:39:14;17.00;99.90
8780;DHT22;62328;51.19929245;4.42130175;2023-07-13T03:41:41;17.00;99.90
8780;DHT22;62328;51.19929245;4.42130175;2023-07-13T03:44:08;17.10;99.90
8780;DHT22;62328;51.19929245;4.42130175;2023-07-13T03:46:36;17.20;99.90
8780;DHT22;62328;51.19929245;4.42130175;2023-07-13T03:49:04;17.20;99.90
8780;DHT22;62328;51.19929245;4.42130175;2023-07-13T03:51:33;17.20;99.90
8780;DHT22;62328;51.19929245;4.42130175;2023-07-13T03:54:01;17.10;99.90
8780;DHT22;62328;51.19929245;4.42130175;2023-07-13T03:56:30;17.10;99.90
8780;DHT22;62328;51.19929245;4.42130175;2023-07-13T03:58:58;17.10;99.90
8780;DHT22;62328;51.19929245;4.42130175;2023-07-13T04:01:25;17.10;99.90
8780;DHT22;62328;51.19929245;4.42130175;2023-07-13T04:03:53;17.10;99.90
8780;DHT22;62328;51.19929245;4.42130175;2023-07-13T04:06:21;17.10;99.90
8780;DHT22;62328;51.19929245;4.42130175;2023-07-13T04:08:51;17.10;99.90
8780;DHT22;62328;51.19929245;4.42130175;2023-07-13T04:11:19;17.20;99.90
8780;DHT22;62328;51.19929245;4.42130175;2023-07-13T04:13:49;17.20;99.90
8780;DHT22;62328;51.19929245;4.42130175;2023-07-13T04:16:17;17.10;99.90
8780;DHT22;62328;51.19929245;4.42130175;2023-07-13T04:18:46;17.10;99.90
8780;DHT22;62328;51.19929245;4.42130175;2023-07-13T04:21:14;17.10;99.90
8780;DHT22;62328;51.19929245;4.42130175;2023-07-13T04:23:42;17.00;99.90
8780;DHT22;62328;51.19929245;4.42130175;2023-07-13T04:26:09;17.00;99.90
8780;DHT22;62328;51.19929245;4.42130175;2023-07-13T04:28:37;17.00;99.90
8780;DHT22;62328;51.19929245;4.42130175;2023-07-13T04:31:05;17.10;99.90
8780;DHT22;62328;51.19929245;4.42130175;2023-07-13T04:33:32;17.10;99.90
8780;DHT22;62328;51.19929245;4.42130175;2023-07-13T04:36:00;17.10;99.90
8780;DHT22;62328;51.19929245;4.42130175;2023-07-13T04:38:29;17.20;99.90
8780;DHT22;62328;51.19929245;4.42130175;2023-07-13T04:40:58;17.20;99.90
8780;DHT22;62328;51.19929245;4.42130175;2023-07-13T04:43:26;17.10;99.90
8780;DHT22;62328;51.19929245;4.42130175;2023-07-13T04:45:54;17.20;99.90
8780;DHT22;62328;51.19929245;4.42130175;2023-07-13T04:48:23;17.20;99.90
8780;DHT22;62328;51.19929245;4.42130175;2023-07-13T04:50:55;17.20;99.90
8780;DHT22;62328;51.19929245;4.42130175;2023-07-13T04:53:23;17.10;99.90
8780;DHT22;62328;51.19929245;4.42130175;2023-07-13T04:55:50;17.10;99.90
8780;DHT22;62328;51.19929245;4.42130175;2023-07-13T04:58:17;17.10;99.90
8780;DHT22;62328;51.19929245;4.42130175;2023-07-13T05:00:45;17.10;99.90
8780;DHT22;62328;51.19929245;4.42130175;2023-07-13T05:03:13;17.10;99.90
8780;DHT22;62328;51.19929245;4.42130175;2023-07-13T05:05:42;17.10;99.90
8780;DHT22;62328;51.19929245;4.42130175;2023-07-13T05:08:09;17.10;99.90
8780;DHT22;62328;51.19929245;4.42130175;2023-07-13T05:10:36;17.10;99.90
8780;DHT22;62328;51.19929245;4.42130175;2023-07-13T05:13:03;17.20;99.90
8780;DHT22;62328;51.19929245;4.42130175;2023-07-13T05:15:30;17.20;99.90
8780;DHT22;62328;51.19929245;4.42130175;2023-07-13T05:17:59;17.30;99.90
8780;DHT22;62328;51.19929245;4.42130175;2023-07-13T05:20:26;17.30;99.90
8780;DHT22;62328;51.19929245;4.42130175;2023-07-13T05:22:55;17.30;99.90
8780;DHT22;62328;51.19929245;4.42130175;2023-07-13T05:25:23;17.30;99.90
8780;DHT22;62328;51.19929245;4.42130175;2023-07-13T05:27:50;17.30;99.90
8780;DHT22;62328;51.19929245;4.42130175;2023-07-13T05:30:17;17.30;99.90
8780;DHT22;62328;51.19929245;4.42130175;2023-07-13T05:32:44;17.30;99.90
8780;DHT22;62328;51.19929245;4.42130175;2023-07-13T05:35:11;17.20;99.90
8780;DHT22;62328;51.19929245;4.42130175;2023-07-13T05:37:38;17.20;99.90
8780;DHT22;62328;51.19929245;4.42130175;2023-07-13T05:40:08;17.30;99.90
8780;DHT22;62328;51.19929245;4.42130175;2023-07-13T05:42:35;17.30;99.90
8780;DHT22;62328;51.19929245;4.42130175;2023-07-13T05:45:03;17.30;99.90
8780;DHT22;62328;51.19929245;4.42130175;2023-07-13T05:47:30;17.40;99.90
8780;DHT22;62328;51.19929245;4.42130175;2023-07-13T05:49:58;17.40;99.90
8780;DHT22;62328;51.19929245;4.42130175;2023-07-13T05:52:26;17.40;99.90
8780;DHT22;62328;51.19929245;4.42130175;2023-07-13T05:54:53;17.40;99.90
8780;DHT22;62328;51.19929245;4.42130175;2023-07-13T05:57:22;17.40;99.90
8780;DHT22;62328;51.19929245;4.42130175;2023-07-13T05:59:49;17.40;99.90
8780;DHT22;62328;51.19929245;4.42130175;2023-07-13T06:02:16;17.40;99.90
8780;DHT22;62328;51.19929245;4.42130175;2023-07-13T06:04:43;17.40;99.90
8780;DHT22;62328;51.19929245;4.42130175;2023-07-13T06:07:10;17.40;99.90
8780;DHT22;62328;51.19929245;4.42130175;2023-07-13T06:09:38;17.40;99.90
8780;DHT22;62328;51.19929245;4.42130175;2023-07-13T06:12:06;17.40;99.90
8780;DHT22;62328;51.19929245;4.42130175;2023-07-13T06:14:34;17.40;99.90
8780;DHT22;62328;51.19929245;4.42130175;2023-07-13T06:17:02;17.50;99.90
8780;DHT22;62328;51.19929245;4.42130175;2023-07-13T06:19:29;17.40;99.90
8780;DHT22;62328;51.19929245;4.42130175;2023-07-13T06:21:57;17.40;99.90
8780;DHT22;62328;51.19929245;4.42130175;2023-07-13T06:24:25;17.50;99.90
8780;DHT22;62328;51.19929245;4.42130175;2023-07-13T06:26:52;17.50;99.90
8780;DHT22;62328;51.19929245;4.42130175;2023-07-13T06:29:19;17.70;99.90
8780;DHT22;62328;51.19929245;4.42130175;2023-07-13T06:31:48;17.50;99.90
8780;DHT22;62328;51.19929245;4.42130175;2023-07-13T06:34:15;17.50;99.90
8780;DHT22;62328;51.19929245;4.42130175;2023-07-13T06:36:43;17.50;99.90
8780;DHT22;62328;51.19929245;4.42130175;2023-07-13T06:39:11;17.60;99.90
8780;DHT22;62328;51.19929245;4.42130175;2023-07-13T06:41:38;17.60;99.90
8780;DHT22;62328;51.19929245;4.42130175;2023-07-13T06:44:05;17.70;99.90
8780;DHT22;62328;51.19929245;4.42130175;2023-07-13T06:46:33;17.70;99.90
8780;DHT22;62328;51.19929245;4.42130175;2023-07-13T06:49:01;17.70;99.90
8780;DHT22;62328;51.19929245;4.42130175;2023-07-13T06:51:29;17.70;99.90
8780;DHT22;62328;51.19929245;4.42130175;2023-07-13T06:53:56;17.70;99.90
8780;DHT22;62328;51.19929245;4.42130175;2023-07-13T06:56:23;17.60;99.90
8780;DHT22;62328;51.19929245;4.42130175;2023-07-13T06:58:50;17.70;99.90
8780;DHT22;62328;51.19929245;4.42130175;2023-07-13T07:01:17;17.80;99.90
8780;DHT22;62328;51.19929245;4.42130175;2023-07-13T07:03:44;17.80;99.90
8780;DHT22;62328;51.19929245;4.42130175;2023-07-13T07:06:16;17.80;99.90
8780;DHT22;62328;51.19929245;4.42130175;2023-07-13T07:08:43;17.90;99.90
8780;DHT22;62328;51.19929245;4.42130175;2023-07-13T07:11:13;17.90;99.90
8780;DHT22;62328;51.19929245;4.42130175;2023-07-13T07:13:40;18.00;99.90
8780;DHT22;62328;51.19929245;4.42130175;2023-07-13T07:16:07;18.00;99.90
8780;DHT22;62328;51.19929245;4.42130175;2023-07-13T07:18:35;18.10;99.90
8780;DHT22;62328;51.19929245;4.42130175;2023-07-13T07:21:02;18.20;99.90
8780;DHT22;62328;51.19929245;4.42130175;2023-07-13T07:23:32;18.20;99.90
8780;DHT22;62328;51.19929245;4.42130175;2023-07-13T07:26:00;18.30;99.90
8780;DHT22;62328;51.19929245;4.42130175;2023-07-13T07:28:27;18.40;99.90
8780;DHT22;62328;51.19929245;4.42130175;2023-07-13T07:30:57;18.30;99.90
8780;DHT22;62328;51.19929245;4.42130175;2023-07-13T07:33:25;18.50;99.90
8780;DHT22;62328;51.19929245;4.42130175;2023-07-13T07:35:52;18.60;99.90
8780;DHT22;62328;51.19929245;4.42130175;2023-07-13T07:38:19;18.70;99.90
8780;DHT22;62328;51.19929245;4.42130175;2023-07-13T07:40:48;18.70;99.90
8780;DHT22;62328;51.19929245;4.42130175;2023-07-13T07:43:15;18.70;99.90
8780;DHT22;62328;51.19929245;4.42130175;2023-07-13T07:45:45;18.80;99.90
8780;DHT22;62328;51.19929245;4.42130175;2023-07-13T07:48:12;18.90;99.90
8780;DHT22;62328;51.19929245;4.42130175;2023-07-13T07:50:40;18.90;99.90
8780;DHT22;62328;51.19929245;4.42130175;2023-07-13T07:53:07;18.90;99.90
8780;DHT22;62328;51.19929245;4.42130175;2023-07-13T07:55:36;18.90;99.90
8780;DHT22;62328;51.19929245;4.42130175;2023-07-13T07:58:04;18.90;99.90
8780;DHT22;62328;51.19929245;4.42130175;2023-07-13T08:00:32;18.90;99.90
8780;DHT22;62328;51.19929245;4.42130175;2023-07-13T08:03:01;18.90;99.90
8780;DHT22;62328;51.19929245;4.42130175;2023-07-13T08:05:28;18.90;99.90
8780;DHT22;62328;51.19929245;4.42130175;2023-07-13T08:07:56;18.90;99.90
8780;DHT22;62328;51.19929245;4.42130175;2023-07-13T08:10:23;19.00;99.90
8780;DHT22;62328;51.19929245;4.42130175;2023-07-13T08:12:50;19.10;99.90
8780;DHT22;62328;51.19929245;4.42130175;2023-07-13T08:15:18;19.10;99.90
8780;DHT22;62328;51.19929245;4.42130175;2023-07-13T08:17:48;19.20;99.90
8780;DHT22;62328;51.19929245;4.42130175;2023-07-13T08:20:15;19.30;99.90
8780;DHT22;62328;51.19929245;4.42130175;2023-07-13T08:22:43;19.20;99.90
8780;DHT22;62328;51.19929245;4.42130175;2023-07-13T08:25:11;19.30;99.90
8780;DHT22;62328;51.19929245;4.42130175;2023-07-13T08:27:38;19.40;99.90
8780;DHT22;62328;51.19929245;4.42130175;2023-07-13T08:30:06;19.50;99.90
8780;DHT22;62328;51.19929245;4.42130175;2023-07-13T08:32:36;19.60;99.90
8780;DHT22;62328;51.19929245;4.42130175;2023-07-13T08:35:05;19.70;99.90
8780;DHT22;62328;51.19929245;4.42130175;2023-07-13T08:37:32;19.80;99.90
8780;DHT22;62328;51.19929245;4.42130175;2023-07-13T08:39:59;19.90;99.90
8780;DHT22;62328;51.19929245;4.42130175;2023-07-13T08:42:39;20.00;99.90
8780;DHT22;62328;51.19929245;4.42130175;2023-07-13T08:45:17;20.00;99.90
8780;DHT22;62328;51.19929245;4.42130175;2023-07-13T08:47:50;19.90;99.90
8780;DHT22;62328;51.19929245;4.42130175;2023-07-13T08:50:23;19.80;99.90
8780;DHT22;62328;51.19929245;4.42130175;2023-07-13T08:52:53;19.80;99.90
8780;DHT22;62328;51.19929245;4.42130175;2023-07-13T08:55:26;19.80;99.90
8780;DHT22;62328;51.19929245;4.42130175;2023-07-13T08:57:59;19.90;99.90
8780;DHT22;62328;51.19929245;4.42130175;2023-07-13T09:00:43;20.00;99.90
8780;DHT22;62328;51.19929245;4.42130175;2023-07-13T09:03:20;20.20;99.90
8780;DHT22;62328;51.19929245;4.42130175;2023-07-13T09:05:51;20.30;99.90
8780;DHT22;62328;51.19929245;4.42130175;2023-07-13T09:08:42;20.40;99.90
8780;DHT22;62328;51.19929245;4.42130175;2023-07-13T09:11:23;20.50;99.90
8780;DHT22;62328;51.19929245;4.42130175;2023-07-13T09:14:00;20.40;99.90
8780;DHT22;62328;51.19929245;4.42130175;2023-07-13T09:16:29;20.60;99.90
8780;DHT22;62328;51.19929245;4.42130175;2023-07-13T09:19:01;20.60;99.90
8780;DHT22;62328;51.19929245;4.42130175;2023-07-13T09:21:33;20.80;99.90
8780;DHT22;62328;51.19929245;4.42130175;2023-07-13T09:24:27;20.80;99.90
8780;DHT22;62328;51.19929245;4.42130175;2023-07-13T09:26:56;20.90;99.90
8780;DHT22;62328;51.19929245;4.42130175;2023-07-13T09:29:28;20.80;99.90
8780;DHT22;62328;51.19929245;4.42130175;2023-07-13T09:31:58;20.70;99.90
8780;DHT22;62328;51.19929245;4.42130175;2023-07-13T09:34:28;20.80;99.90
8780;DHT22;62328;51.19929245;4.42130175;2023-07-13T09:36:57;20.80;99.90
8780;DHT22;62328;51.19929245;4.42130175;2023-07-13T09:39:27;20.90;99.90
8780;DHT22;62328;51.19929245;4.42130175;2023-07-13T09:41:59;20.90;99.90
8780;DHT22;62328;51.19929245;4.42130175;2023-07-13T09:44:29;20.90;99.90
8780;DHT22;62328;51.19929245;4.42130175;2023-07-13T09:46:58;20.70;99.90
8780;DHT22;62328;51.19929245;4.42130175;2023-07-13T09:49:25;20.60;99.90
8780;DHT22;62328;51.19929245;4.42130175;2023-07-13T09:52:00;20.50;99.90
8780;DHT22;62328;51.19929245;4.42130175;2023-07-13T09:54:28;20.20;99.90
8780;DHT22;62328;51.19929245;4.42130175;2023-07-13T09:56:56;20.00;99.90
8780;DHT22;62328;51.19929245;4.42130175;2023-07-13T09:59:26;19.90;99.90
8780;DHT22;62328;51.19929245;4.42130175;2023-07-13T10:01:54;19.70;99.90
8780;DHT22;62328;51.19929245;4.42130175;2023-07-13T10:04:31;19.60;99.90
8780;DHT22;62328;51.19929245;4.42130175;2023-07-13T10:07:07;19.50;99.90
8780;DHT22;62328;51.19929245;4.42130175;2023-07-13T10:09:35;19.50;99.90
8780;DHT22;62328;51.19929245;4.42130175;2023-07-13T10:12:04;19.40;99.90
8780;DHT22;62328;51.19929245;4.42130175;2023-07-13T10:14:41;19.40;99.90
8780;DHT22;62328;51.19929245;4.42130175;2023-07-13T10:17:12;19.40;99.90
8780;DHT22;62328;51.19929245;4.42130175;2023-07-13T10:19:41;19.50;99.90
8780;DHT22;62328;51.19929245;4.42130175;2023-07-13T10:22:18;19.60;99.90
8780;DHT22;62328;51.19929245;4.42130175;2023-07-13T10:24:49;19.80;99.90
8780;DHT22;62328;51.19929245;4.42130175;2023-07-13T10:27:19;20.00;99.90
8780;DHT22;62328;51.19929245;4.42130175;2023-07-13T10:29:54;20.20;99.90
8780;DHT22;62328;51.19929245;4.42130175;2023-07-13T10:32:24;20.50;99.90
8780;DHT22;62328;51.19929245;4.42130175;2023-07-13T10:34:52;20.60;99.90
8780;DHT22;62328;51.19929245;4.42130175;2023-07-13T10:37:26;20.80;99.90
8780;DHT22;62328;51.19929245;4.42130175;2023-07-13T10:39:57;20.90;99.90
8780;DHT22;62328;51.19929245;4.42130175;2023-07-13T10:42:29;21.20;99.90
8780;DHT22;62328;51.19929245;4.42130175;2023-07-13T10:44:57;21.30;99.90
8780;DHT22;62328;51.19929245;4.42130175;2023-07-13T10:47:25;21.50;99.90
8780;DHT22;62328;51.19929245;4.42130175;2023-07-13T10:49:57;21.70;99.90
8780;DHT22;62328;51.19929245;4.42130175;2023-07-13T10:52:46;21.70;99.90
8780;DHT22;62328;51.19929245;4.42130175;2023-07-13T10:55:32;21.90;99.90
8780;DHT22;62328;51.19929245;4.42130175;2023-07-13T10:58:02;22.00;99.90
8780;DHT22;62328;51.19929245;4.42130175;2023-07-13T11:00:44;22.20;99.90
8780;DHT22;62328;51.19929245;4.42130175;2023-07-13T11:03:15;22.40;99.90
8780;DHT22;62328;51.19929245;4.42130175;2023-07-13T11:05:43;22.50;99.90
8780;DHT22;62328;51.19929245;4.42130175;2023-07-13T11:08:19;22.60;99.90
8780;DHT22;62328;51.19929245;4.42130175;2023-07-13T11:10:50;22.50;99.90
8780;DHT22;62328;51.19929245;4.42130175;2023-07-13T11:13:38;22.40;99.90
8780;DHT22;62328;51.19929245;4.42130175;2023-07-13T11:16:44;22.30;99.90
8780;DHT22;62328;51.19929245;4.42130175;2023-07-13T11:22:16;22.20;99.90
8780;DHT22;62328;51.19929245;4.42130175;2023-07-13T11:25:28;22.10;99.90
8780;DHT22;62328;51.19929245;4.42130175;2023-07-13T11:28:29;21.90;99.90
8780;DHT22;62328;51.19929245;4.42130175;2023-07-13T11:31:02;21.70;99.90
8780;DHT22;62328;51.19929245;4.42130175;2023-07-13T11:36:31;20.90;99.90
8780;DHT22;62328;51.19929245;4.42130175;2023-07-13T11:39:05;20.70;99.90
8780;DHT22;62328;51.19929245;4.42130175;2023-07-13T11:41:49;20.30;99.90
8780;DHT22;62328;51.19929245;4.42130175;2023-07-13T11:44:18;20.00;99.90
8780;DHT22;62328;51.19929245;4.42130175;2023-07-13T11:46:47;19.70;99.90
8780;DHT22;62328;51.19929245;4.42130175;2023-07-13T11:49:18;19.50;99.90
8780;DHT22;62328;51.19929245;4.42130175;2023-07-13T11:51:46;19.30;99.90
8780;DHT22;62328;51.19929245;4.42130175;2023-07-13T11:54:24;19.10;99.90
8780;DHT22;62328;51.19929245;4.42130175;2023-07-13T11:56:55;19.00;99.90
8780;DHT22;62328;51.19929245;4.42130175;2023-07-13T11:59:26;18.90;99.90
8780;DHT22;62328;51.19929245;4.42130175;2023-07-13T12:01:55;18.80;99.90
8780;DHT22;62328;51.19929245;4.42130175;2023-07-13T12:04:25;18.80;99.90
8780;DHT22;62328;51.19929245;4.42130175;2023-07-13T12:06:56;18.80;99.90
8780;DHT22;62328;51.19929245;4.42130175;2023-07-13T12:09:27;18.90;99.90
8780;DHT22;62328;51.19929245;4.42130175;2023-07-13T12:11:57;18.90;99.90
8780;DHT22;62328;51.19929245;4.42130175;2023-07-13T12:14:27;18.90;99.90
8780;DHT22;62328;51.19929245;4.42130175;2023-07-13T12:16:55;18.80;99.90
8780;DHT22;62328;51.19929245;4.42130175;2023-07-13T12:19:25;18.90;99.90
8780;DHT22;62328;51.19929245;4.42130175;2023-07-13T12:21:55;19.00;99.90
8780;DHT22;62328;51.19929245;4.42130175;2023-07-13T12:24:24;19.10;99.90
8780;DHT22;62328;51.19929245;4.42130175;2023-07-13T12:26:54;19.00;99.90
8780;DHT22;62328;51.19929245;4.42130175;2023-07-13T12:29:23;19.00;99.90
8780;DHT22;62328;51.19929245;4.42130175;2023-07-13T12:31:50;19.10;99.90
8780;DHT22;62328;51.19929245;4.42130175;2023-07-13T12:34:20;19.10;99.90
8780;DHT22;62328;51.19929245;4.42130175;2023-07-13T12:36:49;19.20;99.90
8780;DHT22;62328;51.19929245;4.42130175;2023-07-13T12:39:20;19.10;99.90
8780;DHT22;62328;51.19929245;4.42130175;2023-07-13T12:41:49;19.10;99.90
8780;DHT22;62328;51.19929245;4.42130175;2023-07-13T12:44:20;19.10;99.90
8780;DHT22;62328;51.19929245;4.42130175;2023-07-13T12:46:58;19.10;99.90
8780;DHT22;62328;51.19929245;4.42130175;2023-07-13T12:49:32;19.10;99.90
8780;DHT22;62328;51.19929245;4.42130175;2023-07-13T12:52:03;19.30;99.90
8780;DHT22;62328;51.19929245;4.42130175;2023-07-13T12:54:31;19.30;99.90
8780;DHT22;62328;51.19929245;4.42130175;2023-07-13T12:57:00;19.40;99.90
8780;DHT22;62328;51.19929245;4.42130175;2023-07-13T12:59:32;19.60;99.90
8780;DHT22;62328;51.19929245;4.42130175;2023-07-13T13:02:29;19.70;99.90
8780;DHT22;62328;51.19929245;4.42130175;2023-07-13T13:04:57;19.80;99.90
8780;DHT22;62328;51.19929245;4.42130175;2023-07-13T13:07:25;19.80;99.90
8780;DHT22;62328;51.19929245;4.42130175;2023-07-13T13:09:52;19.80;99.90
8780;DHT22;62328;51.19929245;4.42130175;2023-07-13T13:12:21;19.70;99.90
8780;DHT22;62328;51.19929245;4.42130175;2023-07-13T13:14:50;19.80;99.90
8780;DHT22;62328;51.19929245;4.42130175;2023-07-13T13:17:21;19.90;99.90
8780;DHT22;62328;51.19929245;4.42130175;2023-07-13T13:19:49;20.10;99.90
8780;DHT22;62328;51.19929245;4.42130175;2023-07-13T13:22:18;20.30;99.90
8780;DHT22;62328;51.19929245;4.42130175;2023-07-13T13:24:46;20.50;99.90
8780;DHT22;62328;51.19929245;4.42130175;2023-07-13T13:27:16;20.80;99.90
8780;DHT22;62328;51.19929245;4.42130175;2023-07-13T13:29:44;21.00;99.90
8780;DHT22;62328;51.19929245;4.42130175;2023-07-13T13:32:13;21.20;99.90
8780;DHT22;62328;51.19929245;4.42130175;2023-07-13T13:34:42;21.20;99.90
8780;DHT22;62328;51.19929245;4.42130175;2023-07-13T13:37:17;21.20;99.90
8780;DHT22;62328;51.19929245;4.42130175;2023-07-13T13:39:45;21.50;99.90
8780;DHT22;62328;51.19929245;4.42130175;2023-07-13T13:42:13;21.80;99.90
8780;DHT22;62328;51.19929245;4.42130175;2023-07-13T13:44:40;21.90;99.90
8780;DHT22;62328;51.19929245;4.42130175;2023-07-13T13:47:28;21.90;99.90
8780;DHT22;62328;51.19929245;4.42130175;2023-07-13T13:49:58;21.90;99.90
8780;DHT22;62328;51.19929245;4.42130175;2023-07-13T13:52:26;22.20;99.90
8780;DHT22;62328;51.19929245;4.42130175;2023-07-13T13:54:53;22.50;99.90